sensor_id;sensor_type;location;lat;lon;timestamp;temperature;humidity
20773;DHT22;10546;50.674;4.616;2022-11-04T07:11:06;10.90;99.90
20773;DHT22;10546;50.674;4.616;2022-11-04T07:13:32;10.80;99.90
20773;DHT22;10546;50.674;4.616;2022-11-04T07:15:57;10.80;99.90
20773;DHT22;10546;50.674;4.616;2022-11-04T07:18:24;10.90;99.90
20773;DHT22;10546;50.674;4.616;2022-11-04T07:20:50;11.00;99.90
20773;DHT22;10546;50.674;4.616;2022-11-04T07:23:16;10.90;99.90
20773;DHT22;10546;50.674;4.616;2022-11-04T07:25:41;10.90;99.90
20773;DHT22;10546;50.674;4.616;2022-11-04T07:28:08;11.00;99.90
20773;DHT22;10546;50.674;4.616;2022-11-04T07:30:33;11.10;99.90
20773;DHT22;10546;50.674;4.616;2022-11-04T07:32:59;11.00;99.90
20773;DHT22;10546;50.674;4.616;2022-11-04T07:35:24;11.10;99.90
20773;DHT22;10546;50.674;4.616;2022-11-04T07:37:50;11.00;99.90
20773;DHT22;10546;50.674;4.616;2022-11-04T07:40:16;11.20;99.90
20773;DHT22;10546;50.674;4.616;2022-11-04T07:42:41;11.20;99.90
20773;DHT22;10546;50.674;4.616;2022-11-04T07:45:07;11.10;99.90
20773;DHT22;10546;50.674;4.616;2022-11-04T07:47:33;11.00;99.90
20773;DHT22;10546;50.674;4.616;2022-11-04T07:49:59;11.00;99.90
20773;DHT22;10546;50.674;4.616;2022-11-04T07:52:24;11.00;99.90
20773;DHT22;10546;50.674;4.616;2022-11-04T07:54:50;11.10;99.90
20773;DHT22;10546;50.674;4.616;2022-11-04T07:57:16;11.30;99.90
20773;DHT22;10546;50.674;4.616;2022-11-04T07:59:41;11.20;99.90
20773;DHT22;10546;50.674;4.616;2022-11-04T08:02:08;11.40;99.90
20773;DHT22;10546;50.674;4.616;2022-11-04T08:04:34;11.50;99.90
20773;DHT22;10546;50.674;4.616;2022-11-04T08:07:00;11.50;99.90
20773;DHT22;10546;50.674;4.616;2022-11-04T08:09:26;11.60;99.90
20773;DHT22;10546;50.674;4.616;2022-11-04T08:11:52;11.70;99.90
20773;DHT22;10546;50.674;4.616;2022-11-04T08:14:17;11.70;99.90
20773;DHT22;10546;50.674;4.616;2022-11-04T08:16:43;11.70;99.90
20773;DHT22;10546;50.674;4.616;2022-11-04T08:19:09;11.70;99.90
20773;DHT22;10546;50.674;4.616;2022-11-04T08:21:34;11.80;99.90
20773;DHT22;10546;50.674;4.616;2022-11-04T08:24:00;11.90;99.90
20773;DHT22;10546;50.674;4.616;2022-11-04T08:26:28;11.90;99.90
20773;DHT22;10546;50.674;4.616;2022-11-04T08:28:54;11.90;99.90
20773;DHT22;10546;50.674;4.616;2022-11-04T08:33:45;11.90;99.90
20773;DHT22;10546;50.674;4.616;2022-11-04T08:36:15;12.10;99.90
20773;DHT22;10546;50.674;4.616;2022-11-04T08:38:41;12.10;99.90
20773;DHT22;10546;50.674;4.616;2022-11-04T08:41:08;12.10;99.90
20773;DHT22;10546;50.674;4.616;2022-11-04T08:43:34;12.20;99.90
20773;DHT22;10546;50.674;4.616;2022-11-04T08:46:00;12.10;99.90
20773;DHT22;10546;50.674;4.616;2022-11-04T08:48:27;12.20;99.90
20773;DHT22;10546;50.674;4.616;2022-11-04T08:50:54;12.10;99.90
20773;DHT22;10546;50.674;4.616;2022-11-04T08:53:23;12.20;99.90
20773;DHT22;10546;50.674;4.616;2022-11-04T08:55:49;12.10;99.90
20773;DHT22;10546;50.674;4.616;2022-11-04T08:58:15;12.10;99.90
20773;DHT22;10546;50.674;4.616;2022-11-04T09:00:41;12.20;99.90
20773;DHT22;10546;50.674;4.616;2022-11-04T09:03:07;12.20;99.90
20773;DHT22;10546;50.674;4.616;2022-11-04T09:05:33;12.20;99.90
20773;DHT22;10546;50.674;4.616;2022-11-04T09:08:00;12.30;99.90
20773;DHT22;10546;50.674;4.616;2022-11-04T09:10:26;12.30;99.90
20773;DHT22;10546;50.674;4.616;2022-11-04T09:12:53;12.40;99.90
20773;DHT22;10546;50.674;4.616;2022-11-04T09:15:19;12.30;99.90
20773;DHT22;10546;50.674;4.616;2022-11-04T09:17:44;12.40;99.90
20773;DHT22;10546;50.674;4.616;2022-11-04T09:20:10;12.50;99.90
20773;DHT22;10546;50.674;4.616;2022-11-04T09:22:36;12.60;99.90
20773;DHT22;10546;50.674;4.616;2022-11-04T09:25:02;12.70;99.90
20773;DHT22;10546;50.674;4.616;2022-11-04T09:27:28;12.60;99.90
20773;DHT22;10546;50.674;4.616;2022-11-04T09:29:53;12.60;99.90
20773;DHT22;10546;50.674;4.616;2022-11-04T09:32:19;12.60;99.90
20773;DHT22;10546;50.674;4.616;2022-11-04T09:34:45;12.70;99.90
20773;DHT22;10546;50.674;4.616;2022-11-04T09:37:10;12.80;99.90
20773;DHT22;10546;50.674;4.616;2022-11-04T09:39:36;12.80;99.90
20773;DHT22;10546;50.674;4.616;2022-11-04T09:42:28;12.90;99.90
20773;DHT22;10546;50.674;4.616;2022-11-04T09:45:03;12.90;99.90
20773;DHT22;10546;50.674;4.616;2022-11-04T09:47:33;12.90;99.90
20773;DHT22;10546;50.674;4.616;2022-11-04T09:50:00;13.00;99.90
20773;DHT22;10546;50.674;4.616;2022-11-04T09:52:27;13.10;99.90
20773;DHT22;10546;50.674;4.616;2022-11-04T09:55:17;13.40;99.90
20773;DHT22;10546;50.674;4.616;2022-11-04T09:57:52;13.60;99.90
20773;DHT22;10546;50.674;4.616;2022-11-04T10:00:18;14.10;99.90
20773;DHT22;10546;50.674;4.616;2022-11-04T10:02:54;14.30;99.90
20773;DHT22;10546;50.674;4.616;2022-11-04T10:08:55;14.20;99.90
20773;DHT22;10546;50.674;4.616;2022-11-04T10:19:45;14.10;99.90
20773;DHT22;10546;50.674;4.616;2022-11-04T10:22:39;14.10;99.90
20773;DHT22;10546;50.674;4.616;2022-11-04T10:25:22;13.90;99.90
20773;DHT22;10546;50.674;4.616;2022-11-04T10:27:49;13.60;99.90
20773;DHT22;10546;50.674;4.616;2022-11-04T10:30:19;13.50;99.90
20773;DHT22;10546;50.674;4.616;2022-11-04T10:35:30;13.50;99.90
20773;DHT22;10546;50.674;4.616;2022-11-04T10:38:00;13.60;99.90
20773;DHT22;10546;50.674;4.616;2022-11-04T10:40:35;13.80;99.90
20773;DHT22;10546;50.674;4.616;2022-11-04T10:43:05;14.00;99.90
20773;DHT22;10546;50.674;4.616;2022-11-04T10:45:42;13.90;99.90
20773;DHT22;10546;50.674;4.616;2022-11-04T10:48:21;14.00;99.90
20773;DHT22;10546;50.674;4.616;2022-11-04T10:50:55;14.20;99.90
20773;DHT22;10546;50.674;4.616;2022-11-04T10:53:30;14.00;99.90
20773;DHT22;10546;50.674;4.616;2022-11-04T10:58:47;14.00;99.90
20773;DHT22;10546;50.674;4.616;2022-11-04T11:01:31;14.00;99.90
20773;DHT22;10546;50.674;4.616;2022-11-04T11:03:57;13.80;99.90
20773;DHT22;10546;50.674;4.616;2022-11-04T11:06:28;13.60;99.90
20773;DHT22;10546;50.674;4.616;2022-11-04T11:09:12;13.50;99.90
20773;DHT22;10546;50.674;4.616;2022-11-04T11:11:45;13.20;99.90
20773;DHT22;10546;50.674;4.616;2022-11-04T11:16:42;13.50;99.90
20773;DHT22;10546;50.674;4.616;2022-11-04T11:19:14;13.30;99.90
20773;DHT22;10546;50.674;4.616;2022-11-04T11:21:45;13.10;99.90
20773;DHT22;10546;50.674;4.616;2022-11-04T11:24:24;12.80;99.90
20773;DHT22;10546;50.674;4.616;2022-11-04T11:26:53;12.80;99.90
20773;DHT22;10546;50.674;4.616;2022-11-04T11:29:23;12.70;99.90
20773;DHT22;10546;50.674;4.616;2022-11-04T11:31:50;12.80;99.90
20773;DHT22;10546;50.674;4.616;2022-11-04T11:34:23;12.80;99.90
20773;DHT22;10546;50.674;4.616;2022-11-04T11:36:52;12.80;99.90
20773;DHT22;10546;50.674;4.616;2022-11-04T11:39:19;12.90;99.90
20773;DHT22;10546;50.674;4.616;2022-11-04T11:44:32;12.90;99.90
20773;DHT22;10546;50.674;4.616;2022-11-04T11:47:04;12.90;99.90
20773;DHT22;10546;50.674;4.616;2022-11-04T11:49:33;12.90;99.90
20773;DHT22;10546;50.674;4.616;2022-11-04T11:52:34;12.90;99.90
20773;DHT22;10546;50.674;4.616;2022-11-04T12:00:58;13.30;99.90
20773;DHT22;10546;50.674;4.616;2022-11-04T12:03:32;13.30;99.90
20773;DHT22;10546;50.674;4.616;2022-11-04T12:09:17;13.70;99.90
20773;DHT22;10546;50.674;4.616;2022-11-04T12:22:46;14.00;99.90
20773;DHT22;10546;50.674;4.616;2022-11-04T12:28:32;14.00;99.90
20773;DHT22;10546;50.674;4.616;2022-11-04T12:44:36;13.80;99.90
20773;DHT22;10546;50.674;4.616;2022-11-04T12:57:58;14.00;99.90
20773;DHT22;10546;50.674;4.616;2022-11-04T13:00:28;14.00;99.90
20773;DHT22;10546;50.674;4.616;2022-11-04T13:03:08;14.10;99.90
20773;DHT22;10546;50.674;4.616;2022-11-04T13:05:51;14.10;99.90
20773;DHT22;10546;50.674;4.616;2022-11-04T13:11:15;14.00;99.90
20773;DHT22;10546;50.674;4.616;2022-11-04T13:14:19;14.10;99.90
20773;DHT22;10546;50.674;4.616;2022-11-04T13:16:49;14.10;99.90
20773;DHT22;10546;50.674;4.616;2022-11-04T13:21:53;14.20;99.90
20773;DHT22;10546;50.674;4.616;2022-11-04T13:24:29;14.20;99.90
20773;DHT22;10546;50.674;4.616;2022-11-04T13:27:40;14.20;99.90
20773;DHT22;10546;50.674;4.616;2022-11-04T13:33:14;14.20;99.90
20773;DHT22;10546;50.674;4.616;2022-11-04T13:38:22;13.40;99.90
20773;DHT22;10546;50.674;4.616;2022-11-04T13:41:24;13.20;99.90
20773;DHT22;10546;50.674;4.616;2022-11-04T13:43:56;13.10;99.90
20773;DHT22;10546;50.674;4.616;2022-11-04T13:46:29;13.00;99.90
20773;DHT22;10546;50.674;4.616;2022-11-04T13:51:38;12.60;99.90
20773;DHT22;10546;50.674;4.616;2022-11-04T13:54:05;12.70;99.90
20773;DHT22;10546;50.674;4.616;2022-11-04T13:56:37;12.90;99.90
20773;DHT22;10546;50.674;4.616;2022-11-04T13:59:27;12.70;99.90
20773;DHT22;10546;50.674;4.616;2022-11-04T14:04:42;12.80;99.90
20773;DHT22;10546;50.674;4.616;2022-11-04T14:07:09;12.80;99.90
20773;DHT22;10546;50.674;4.616;2022-11-04T14:14:47;12.80;99.90
20773;DHT22;10546;50.674;4.616;2022-11-04T14:22:33;13.00;99.90
20773;DHT22;10546;50.674;4.616;2022-11-04T14:25:03;12.90;99.90
20773;DHT22;10546;50.674;4.616;2022-11-04T14:27:42;13.00;99.90
20773;DHT22;10546;50.674;4.616;2022-11-04T14:35:53;12.90;99.90
20773;DHT22;10546;50.674;4.616;2022-11-04T14:38:31;12.90;99.90
20773;DHT22;10546;50.674;4.616;2022-11-04T14:44:01;12.80;99.90
20773;DHT22;10546;50.674;4.616;2022-11-04T14:46:35;12.90;99.90
20773;DHT22;10546;50.674;4.616;2022-11-04T14:49:04;12.80;99.90
20773;DHT22;10546;50.674;4.616;2022-11-04T14:51:33;12.80;99.90
20773;DHT22;10546;50.674;4.616;2022-11-04T14:54:09;12.80;99.90
20773;DHT22;10546;50.674;4.616;2022-11-04T14:56:37;12.80;99.90
20773;DHT22;10546;50.674;4.616;2022-11-04T14:59:04;12.80;99.90
20773;DHT22;10546;50.674;4.616;2022-11-04T15:01:36;12.70;99.90
20773;DHT22;10546;50.674;4.616;2022-11-04T15:06:39;12.60;99.90
20773;DHT22;10546;50.674;4.616;2022-11-04T15:09:48;12.60;99.90
20773;DHT22;10546;50.674;4.616;2022-11-04T15:12:10;12.50;99.90
20773;DHT22;10546;50.674;4.616;2022-11-04T15:14:55;12.50;99.90
20773;DHT22;10546;50.674;4.616;2022-11-04T15:17:24;12.40;99.90
20773;DHT22;10546;50.674;4.616;2022-11-04T15:19:53;12.50;99.90
20773;DHT22;10546;50.674;4.616;2022-11-04T15:22:20;12.50;99.90
20773;DHT22;10546;50.674;4.616;2022-11-04T15:24:46;12.50;99.90
20773;DHT22;10546;50.674;4.616;2022-11-04T15:27:24;12.50;99.90
20773;DHT22;10546;50.674;4.616;2022-11-04T15:30:01;12.40;99.90
20773;DHT22;10546;50.674;4.616;2022-11-04T15:32:28;12.40;99.90
20773;DHT22;10546;50.674;4.616;2022-11-04T15:34:54;12.30;99.90
20773;DHT22;10546;50.674;4.616;2022-11-04T15:37:21;12.30;99.90
20773;DHT22;10546;50.674;4.616;2022-11-04T15:39:51;12.40;99.90
20773;DHT22;10546;50.674;4.616;2022-11-04T15:42:20;12.30;99.90
20773;DHT22;10546;50.674;4.616;2022-11-04T15:51:07;12.00;99.90
20773;DHT22;10546;50.674;4.616;2022-11-04T15:54:24;11.70;99.90
20773;DHT22;10546;50.674;4.616;2022-11-04T15:56:27;11.60;99.90
20773;DHT22;10546;50.674;4.616;2022-11-04T15:58:54;11.50;99.90
20773;DHT22;10546;50.674;4.616;2022-11-04T16:01:20;11.40;99.90
20773;DHT22;10546;50.674;4.616;2022-11-04T16:03:54;11.50;99.90
20773;DHT22;10546;50.674;4.616;2022-11-04T16:06:34;11.30;99.90
20773;DHT22;10546;50.674;4.616;2022-11-04T16:09:14;11.30;99.90
20773;DHT22;10546;50.674;4.616;2022-11-04T16:12:06;11.20;99.90
20773;DHT22;10546;50.674;4.616;2022-11-04T16:14:32;10.90;99.90
20773;DHT22;10546;50.674;4.616;2022-11-04T16:16:58;10.90;99.90
20773;DHT22;10546;50.674;4.616;2022-11-04T16:19:26;10.80;99.90
20773;DHT22;10546;50.674;4.616;2022-11-04T16:22:00;10.80;99.90
20773;DHT22;10546;50.674;4.616;2022-11-04T16:24:38;10.80;99.90
20773;DHT22;10546;50.674;4.616;2022-11-04T16:27:09;10.80;99.90
20773;DHT22;10546;50.674;4.616;2022-11-04T16:29:36;10.70;99.90
20773;DHT22;10546;50.674;4.616;2022-11-04T16:34:38;10.60;99.90
20773;DHT22;10546;50.674;4.616;2022-11-04T16:37:04;10.70;99.90
20773;DHT22;10546;50.674;4.616;2022-11-04T16:39:29;10.60;99.90
20773;DHT22;10546;50.674;4.616;2022-11-04T16:41:57;10.60;99.90
20773;DHT22;10546;50.674;4.616;2022-11-04T16:44:24;10.50;99.90
20773;DHT22;10546;50.674;4.616;2022-11-04T16:46:50;10.60;99.90
20773;DHT22;10546;50.674;4.616;2022-11-04T16:49:18;10.60;99.90
20773;DHT22;10546;50.674;4.616;2022-11-04T16:51:48;10.50;99.90
20773;DHT22;10546;50.674;4.616;2022-11-04T16:54:14;10.40;99.90
20773;DHT22;10546;50.674;4.616;2022-11-04T16:56:40;10.40;99.90
20773;DHT22;10546;50.674;4.616;2022-11-04T16:59:08;10.30;99.90
20773;DHT22;10546;50.674;4.616;2022-11-04T17:01:36;10.30;99.90
20773;DHT22;10546;50.674;4.616;2022-11-04T17:04:06;10.30;99.90
20773;DHT22;10546;50.674;4.616;2022-11-04T17:06:33;10.30;99.90
20773;DHT22;10546;50.674;4.616;2022-11-04T17:08:59;10.30;99.90
20773;DHT22;10546;50.674;4.616;2022-11-04T17:11:26;10.50;99.90
20773;DHT22;10546;50.674;4.616;2022-11-04T17:13:51;10.40;99.90
20773;DHT22;10546;50.674;4.616;2022-11-04T17:16:17;10.40;99.90
20773;DHT22;10546;50.674;4.616;2022-11-04T17:18:43;10.40;99.90
20773;DHT22;10546;50.674;4.616;2022-11-04T17:21:12;10.40;99.90
20773;DHT22;10546;50.674;4.616;2022-11-04T17:23:39;10.50;99.90
20773;DHT22;10546;50.674;4.616;2022-11-04T17:26:05;10.50;99.90
20773;DHT22;10546;50.674;4.616;2022-11-04T17:28:31;10.40;99.90
20773;DHT22;10546;50.674;4.616;2022-11-04T17:30:57;10.40;99.90
20773;DHT22;10546;50.674;4.616;2022-11-04T17:33:23;10.50;99.90
20773;DHT22;10546;50.674;4.616;2022-11-04T17:35:49;10.50;99.90
20773;DHT22;10546;50.674;4.616;2022-11-04T17:38:16;10.40;99.90
20773;DHT22;10546;50.674;4.616;2022-11-04T17:40:42;10.40;99.90
20773;DHT22;10546;50.674;4.616;2022-11-04T17:43:26;10.40;99.90
20773;DHT22;10546;50.674;4.616;2022-11-04T17:46:11;10.40;99.90
20773;DHT22;10546;50.674;4.616;2022-11-04T17:48:55;10.40;99.90
20773;DHT22;10546;50.674;4.616;2022-11-04T17:51:21;10.40;99.90
20773;DHT22;10546;50.674;4.616;2022-11-04T17:53:47;10.30;99.90
20773;DHT22;10546;50.674;4.616;2022-11-04T17:56:20;10.20;99.90
20773;DHT22;10546;50.674;4.616;2022-11-04T17:58:46;10.20;99.90
20773;DHT22;10546;50.674;4.616;2022-11-04T18:01:14;10.10;99.90
20773;DHT22;10546;50.674;4.616;2022-11-04T18:03:40;10.20;99.90
20773;DHT22;10546;50.674;4.616;2022-11-04T18:06:07;10.10;99.90
20773;DHT22;10546;50.674;4.616;2022-11-04T18:08:33;10.20;99.90
20773;DHT22;10546;50.674;4.616;2022-11-04T18:11:02;10.10;99.90
20773;DHT22;10546;50.674;4.616;2022-11-04T18:13:28;10.10;99.90
20773;DHT22;10546;50.674;4.616;2022-11-04T18:15:54;10.10;99.90
20773;DHT22;10546;50.674;4.616;2022-11-04T18:18:20;10.00;99.90
20773;DHT22;10546;50.674;4.616;2022-11-04T18:20:46;9.90;99.90
20773;DHT22;10546;50.674;4.616;2022-11-04T18:23:11;9.90;99.90
20773;DHT22;10546;50.674;4.616;2022-11-04T18:25:41;9.80;99.90
20773;DHT22;10546;50.674;4.616;2022-11-04T18:28:08;9.80;99.90
20773;DHT22;10546;50.674;4.616;2022-11-04T18:30:37;9.70;99.90
20773;DHT22;10546;50.674;4.616;2022-11-04T18:33:03;9.60;99.90
20773;DHT22;10546;50.674;4.616;2022-11-04T18:35:28;9.60;99.90
20773;DHT22;10546;50.674;4.616;2022-11-04T18:37:54;9.50;99.90
20773;DHT22;10546;50.674;4.616;2022-11-04T18:40:19;9.30;99.90
20773;DHT22;10546;50.674;4.616;2022-11-04T18:42:45;9.30;99.90
20773;DHT22;10546;50.674;4.616;2022-11-04T18:45:10;9.20;99.90
20773;DHT22;10546;50.674;4.616;2022-11-04T18:47:36;9.20;99.90
20773;DHT22;10546;50.674;4.616;2022-11-04T18:50:02;9.30;99.90
20773;DHT22;10546;50.674;4.616;2022-11-04T18:52:27;9.00;99.90
20773;DHT22;10546;50.674;4.616;2022-11-04T18:54:53;9.00;99.90
20773;DHT22;10546;50.674;4.616;2022-11-04T18:57:19;9.00;99.90
20773;DHT22;10546;50.674;4.616;2022-11-04T18:59:45;8.90;99.90
20773;DHT22;10546;50.674;4.616;2022-11-04T19:02:19;8.80;99.90
20773;DHT22;10546;50.674;4.616;2022-11-04T19:04:44;8.90;99.90
20773;DHT22;10546;50.674;4.616;2022-11-04T19:07:10;8.80;99.90
20773;DHT22;10546;50.674;4.616;2022-11-04T19:09:36;8.80;99.90
20773;DHT22;10546;50.674;4.616;2022-11-04T19:12:03;8.70;99.90
20773;DHT22;10546;50.674;4.616;2022-11-04T19:14:47;8.80;99.90
20773;DHT22;10546;50.674;4.616;2022-11-04T19:17:13;8.70;99.90
20773;DHT22;10546;50.674;4.616;2022-11-04T19:19:40;8.70;99.90
20773;DHT22;10546;50.674;4.616;2022-11-04T19:22:06;8.70;99.90
20773;DHT22;10546;50.674;4.616;2022-11-04T19:24:31;8.70;99.90
20773;DHT22;10546;50.674;4.616;2022-11-04T19:26:58;8.60;99.90
20773;DHT22;10546;50.674;4.616;2022-11-04T19:29:23;8.60;99.90
20773;DHT22;10546;50.674;4.616;2022-11-04T19:31:49;8.60;99.90
20773;DHT22;10546;50.674;4.616;2022-11-04T19:34:14;8.60;99.90
20773;DHT22;10546;50.674;4.616;2022-11-04T19:36:40;8.70;99.90
20773;DHT22;10546;50.674;4.616;2022-11-04T19:39:06;8.60;99.90
20773;DHT22;10546;50.674;4.616;2022-11-04T19:41:32;8.60;99.90
20773;DHT22;10546;50.674;4.616;2022-11-04T19:44:17;8.60;99.90
20773;DHT22;10546;50.674;4.616;2022-11-04T19:46:44;8.60;99.90
20773;DHT22;10546;50.674;4.616;2022-11-04T19:49:10;8.70;99.90
20773;DHT22;10546;50.674;4.616;2022-11-04T19:51:37;8.40;99.90
20773;DHT22;10546;50.674;4.616;2022-11-04T19:54:03;8.40;99.90
20773;DHT22;10546;50.674;4.616;2022-11-04T19:56:29;8.50;99.90
20773;DHT22;10546;50.674;4.616;2022-11-04T19:58:58;8.40;99.90
20773;DHT22;10546;50.674;4.616;2022-11-04T20:01:24;8.30;99.90
20773;DHT22;10546;50.674;4.616;2022-11-04T20:03:50;8.30;99.90
20773;DHT22;10546;50.674;4.616;2022-11-04T20:06:17;8.30;99.90
20773;DHT22;10546;50.674;4.616;2022-11-04T20:08:44;8.30;99.90
20773;DHT22;10546;50.674;4.616;2022-11-04T20:11:11;8.30;99.90
20773;DHT22;10546;50.674;4.616;2022-11-04T20:13:38;8.30;99.90
20773;DHT22;10546;50.674;4.616;2022-11-04T20:16:26;8.30;99.90
20773;DHT22;10546;50.674;4.616;2022-11-04T20:18:54;8.20;99.90
20773;DHT22;10546;50.674;4.616;2022-11-04T20:21:24;8.20;99.90
20773;DHT22;10546;50.674;4.616;2022-11-04T20:23:57;8.20;99.90
20773;DHT22;10546;50.674;4.616;2022-11-04T20:26:24;8.20;99.90
20773;DHT22;10546;50.674;4.616;2022-11-04T20:28:51;8.20;99.90
20773;DHT22;10546;50.674;4.616;2022-11-04T20:31:28;8.30;99.90
20773;DHT22;10546;50.674;4.616;2022-11-04T20:33:54;8.20;99.90
20773;DHT22;10546;50.674;4.616;2022-11-04T20:36:23;8.30;99.90
20773;DHT22;10546;50.674;4.616;2022-11-04T20:39:02;8.30;99.90
20773;DHT22;10546;50.674;4.616;2022-11-04T20:41:28;8.30;99.90
20773;DHT22;10546;50.674;4.616;2022-11-04T20:43:54;8.30;99.90
20773;DHT22;10546;50.674;4.616;2022-11-04T20:46:26;8.30;99.90
20773;DHT22;10546;50.674;4.616;2022-11-04T20:48:54;8.30;99.90
20773;DHT22;10546;50.674;4.616;2022-11-04T20:51:26;8.30;99.90
20773;DHT22;10546;50.674;4.616;2022-11-04T20:53:57;8.40;99.90
20773;DHT22;10546;50.674;4.616;2022-11-04T20:56:26;8.30;99.90
20773;DHT22;10546;50.674;4.616;2022-11-04T20:58:52;8.40;99.90
20773;DHT22;10546;50.674;4.616;2022-11-04T21:01:24;8.20;99.90
20773;DHT22;10546;50.674;4.616;2022-11-04T21:04:03;8.20;99.90
20773;DHT22;10546;50.674;4.616;2022-11-04T21:06:30;8.20;99.90
20773;DHT22;10546;50.674;4.616;2022-11-04T21:08:57;8.30;99.90
20773;DHT22;10546;50.674;4.616;2022-11-04T21:11:23;8.20;99.90
20773;DHT22;10546;50.674;4.616;2022-11-04T21:13:49;8.20;99.90
20773;DHT22;10546;50.674;4.616;2022-11-04T21:16:15;8.30;99.90
20773;DHT22;10546;50.674;4.616;2022-11-04T21:18:41;8.30;99.90
20773;DHT22;10546;50.674;4.616;2022-11-04T21:21:08;8.20;99.90
20773;DHT22;10546;50.674;4.616;2022-11-04T21:23:35;8.10;99.90
20773;DHT22;10546;50.674;4.616;2022-11-04T21:26:10;8.10;99.90
20773;DHT22;10546;50.674;4.616;2022-11-04T21:28:36;8.00;99.90
20773;DHT22;10546;50.674;4.616;2022-11-04T21:31:07;8.00;99.90
20773;DHT22;10546;50.674;4.616;2022-11-04T21:33:33;8.00;99.90
20773;DHT22;10546;50.674;4.616;2022-11-04T21:36:03;7.90;99.90
20773;DHT22;10546;50.674;4.616;2022-11-04T21:38:30;7.90;99.90
20773;DHT22;10546;50.674;4.616;2022-11-04T21:41:12;7.90;99.90
20773;DHT22;10546;50.674;4.616;2022-11-04T21:43:38;8.00;99.90
20773;DHT22;10546;50.674;4.616;2022-11-04T21:46:06;8.10;99.90
20773;DHT22;10546;50.674;4.616;2022-11-04T21:48:33;8.20;99.90
20773;DHT22;10546;50.674;4.616;2022-11-04T21:51:14;8.10;99.90
20773;DHT22;10546;50.674;4.616;2022-11-04T21:53:41;8.10;99.90
20773;DHT22;10546;50.674;4.616;2022-11-04T21:56:11;8.10;99.90
20773;DHT22;10546;50.674;4.616;2022-11-04T21:58:37;8.20;99.90
20773;DHT22;10546;50.674;4.616;2022-11-04T22:01:04;8.20;99.90
20773;DHT22;10546;50.674;4.616;2022-11-04T22:03:31;8.30;99.90
20773;DHT22;10546;50.674;4.616;2022-11-04T22:06:09;8.30;99.90
20773;DHT22;10546;50.674;4.616;2022-11-04T22:08:36;8.30;99.90
20773;DHT22;10546;50.674;4.616;2022-11-04T22:11:15;8.40;99.90
20773;DHT22;10546;50.674;4.616;2022-11-04T22:13:41;8.40;99.90
20773;DHT22;10546;50.674;4.616;2022-11-04T22:16:16;8.40;99.90
20773;DHT22;10546;50.674;4.616;2022-11-04T22:18:42;8.40;99.90
20773;DHT22;10546;50.674;4.616;2022-11-04T22:21:13;8.40;99.90
20773;DHT22;10546;50.674;4.616;2022-11-04T22:23:40;8.30;99.90
20773;DHT22;10546;50.674;4.616;2022-11-04T22:26:13;8.30;99.90
20773;DHT22;10546;50.674;4.616;2022-11-04T22:28:39;8.20;99.90
20773;DHT22;10546;50.674;4.616;2022-11-04T22:31:14;8.20;99.90
20773;DHT22;10546;50.674;4.616;2022-11-04T22:33:40;8.30;99.90
20773;DHT22;10546;50.674;4.616;2022-11-04T22:36:07;8.30;99.90
20773;DHT22;10546;50.674;4.616;2022-11-04T22:38:34;8.30;99.90
20773;DHT22;10546;50.674;4.616;2022-11-04T22:41:01;8.40;99.90
20773;DHT22;10546;50.674;4.616;2022-11-04T22:43:26;8.40;99.90
20773;DHT22;10546;50.674;4.616;2022-11-04T22:45:54;8.60;99.90
20773;DHT22;10546;50.674;4.616;2022-11-04T22:48:20;8.40;99.90
20773;DHT22;10546;50.674;4.616;2022-11-04T22:50:51;8.30;99.90
20773;DHT22;10546;50.674;4.616;2022-11-04T22:53:18;8.30;99.90
